Data for 11/10/2014

Time Sea-Level Adjusted Pressure Absolute Pressure Temperature Relative Humidity Dew Point   
(mb) (inHg) (mb) (inHg) (C) (F) (%) (C) (F)
00:05 1007 29.74 836 24.69 -4.5 23.9 83 -7 19.4
00:10 1007 29.74 836 24.69 -4.7 23.5 84 -7.1 19.3
00:15 1007 29.74 836 24.69 -4.9 23.3 81 -7.7 18.1
00:20 1007 29.74 836 24.69 -5.2 22.6 83 -7.6 18.3
00:25 1007 29.74 836 24.69 -5.4 22.3 84 -7.7 18.1
00:30 1007 29.74 836 24.69 -5.7 21.8 83 -8.1 17.5
00:35 1007 29.74 837 24.72 -5.7 21.8 84 -7.9 17.7
00:40 1008 29.77 837 24.72 -5.6 22 83 -8 17.6
00:45 1008 29.77 837 24.72 -5.7 21.8 82 -8.3 17.1
00:50 1008 29.77 837 24.72 -5.8 21.6 82 -8.4 16.9
00:55 1008 29.77 837 24.72 -5.8 21.5 83 -8.2 17.2
01:00 1008 29.77 837 24.72 -6 21.3 82 -8.6 16.5
01:05 1008 29.77 837 24.72 -6.3 20.7 83 -8.7 16.4
01:10 1008 29.77 837 24.72 -6.5 20.2 84 -8.8 16.2
01:15 1008 29.77 837 24.72 -6.6 20 85 -8.7 16.3
01:20 1008 29.77 838 24.75 -6.8 19.8 84 -9.1 15.6
01:25 1008 29.77 838 24.75 -7.3 18.8 85 -9.5 14.9
01:30 1009 29.8 838 24.75 -7.6 18.4 84 -9.8 14.3
01:35 1009 29.8 838 24.75 -7.8 18 84 -10 14.1
01:40 1009 29.8 838 24.75 -7.9 17.8 86 -9.9 14.2
01:45 1009 29.8 838 24.75 -7.9 17.7 84 -10.2 13.7
01:50 1009 29.8 838 24.75 -8.1 17.4 85 -10.2 13.6
01:55 1009 29.8 838 24.75 -8 17.5 83 -10.5 13.1
02:00 1009 29.8 838 24.75 -8.3 17 84 -10.6 12.9
02:05 1009 29.8 838 24.75 -8.4 16.8 84 -10.7 12.8
02:10 1009 29.8 838 24.75 -8.4 16.8 83 -10.8 12.6
02:15 1009 29.8 838 24.75 -8.5 16.8 85 -10.6 13
02:20 1009 29.8 838 24.75 -8.3 17 83 -10.7 12.7
02:25 1009 29.8 839 24.78 -8.4 16.9 82 -10.9 12.4
02:30 1009 29.8 839 24.78 -8.4 16.8 83 -10.8 12.6
02:35 1009 29.8 838 24.75 -8.4 16.8 84 -10.7 12.8
02:40 1009 29.8 839 24.78 -8.7 16.3 86 -10.7 12.8
02:45 1010 29.83 839 24.78 -8.8 16.2 84 -10.9 12.3
02:50 1010 29.83 839 24.78 -8.8 16.2 85 -10.9 12.4
02:55 1010 29.83 839 24.78 -8.8 16.1 86 -10.8 12.6
03:00 1010 29.83 839 24.78 -8.8 16.2 84 -11 12.2
03:05 1010 29.83 839 24.78 -8.8 16.3 84 -10.9 12.3
03:10 1010 29.83 839 24.78 -8.9 15.9 84 -11.1 11.9
03:15 1010 29.83 840 24.81 -9.3 15.4 85 -11.3 11.6
03:20 1010 29.83 840 24.81 -9.5 14.9 88 -11.2 11.8
03:25 1011 29.85 840 24.81 -9.4 15 88 -11 12.1
03:30 1011 29.85 840 24.81 -9.3 15.4 88 -10.9 12.5
03:35 1011 29.85 840 24.81 -9.5 15 87 -11.3 11.7
03:40 1011 29.85 840 24.81 -9.7 14.5 87 -11.5 11.3
03:45 1011 29.85 840 24.81 -9.7 14.6 84 -11.8 10.7
03:50 1011 29.85 841 24.83 -9.9 14.3 86 -11.8 10.7
03:55 1011 29.85 841 24.83 -9.9 14.1 85 -11.9 10.5
04:00 1012 29.88 841 24.83 -9.8 14.4 87 -11.6 11.1
04:05 1012 29.88 841 24.83 -9.7 14.6 87 -11.5 11.3
04:10 1012 29.88 841 24.83 -9.8 14.4 86 -11.8 10.8
04:15 1012 29.88 841 24.83 -10.3 13.5 86 -12.2 10.1
04:20 1012 29.88 841 24.83 -10.4 13.2 86 -12.3 9.8
04:25 1012 29.88 841 24.83 -10.5 13.1 86 -12.4 9.6
04:30 1012 29.88 841 24.83 -10.6 12.9 86 -12.6 9.4
04:35 1012 29.88 841 24.83 -10.7 12.8 86 -12.6 9.3
04:40 1012 29.88 842 24.86 -10.7 12.8 85 -12.8 9
04:45 1012 29.88 842 24.86 -10.8 12.6 85 -12.8 9
04:50 1013 29.91 842 24.86 -10.8 12.6 86 -12.7 9.2
04:55 1013 29.91 842 24.86 -10.9 12.5 85 -12.8 8.9
05:00 1013 29.91 842 24.86 -10.9 12.4 86 -12.8 8.9
05:05 1013 29.91 842 24.86 -10.9 12.3 85 -12.9 8.7
05:10 1013 29.91 842 24.86 -11 12.2 84 -13.2 8.2
05:15 1013 29.91 842 24.86 -11.2 11.9 85 -13.2 8.2
05:20 1013 29.91 842 24.86 -11.1 11.9 85 -13.2 8.3
05:25 1013 29.91 842 24.86 -11.2 11.9 85 -13.2 8.2
05:30 1013 29.91 843 24.89 -11.2 11.8 85 -13.3 8
05:35 1014 29.94 843 24.89 -11.2 11.9 84 -13.4 7.8
05:40 1014 29.94 843 24.89 -11.3 11.7 84 -13.4 7.8
05:45 1014 29.94 843 24.89 -11.2 11.8 83 -13.5 7.6
05:50 1014 29.94 843 24.89 -11.3 11.6 84 -13.5 7.8
05:55 1014 29.94 843 24.89 -11.3 11.6 84 -13.5 7.7
06:00 1014 29.94 843 24.89 -11.3 11.7 85 -13.4 7.9
06:05 1014 29.94 843 24.89 -11.3 11.6 85 -13.4 7.8
06:10 1014 29.94 843 24.89 -11.3 11.7 84 -13.5 7.7
06:15 1014 29.94 843 24.89 -11.4 11.5 83 -13.7 7.4
06:20 1014 29.94 844 24.92 -11.4 11.4 83 -13.7 7.3
06:25 1014 29.94 844 24.92 -11.4 11.4 83 -13.7 7.3
06:30 1015 29.97 844 24.92 -11.5 11.4 84 -13.6 7.5
06:35 1015 29.97 844 24.92 -11.4 11.5 84 -13.5 7.7
06:40 1015 29.97 844 24.92 -11.4 11.6 83 -13.8 7.2
06:45 1015 29.97 844 24.92 -11.5 11.3 82 -13.9 6.9
06:50 1015 29.97 844 24.92 -11.5 11.4 82 -13.9 6.9
06:55 1015 29.97 844 24.92 -11.4 11.5 83 -13.7 7.3
07:00 1015 29.97 844 24.92 -11.5 11.4 82 -14 6.8
07:05 1015 29.97 845 24.95 -11.5 11.3 81 -14.1 6.5
07:10 1016 30 845 24.95 -11.6 11.2 81 -14.3 6.3
07:15 1016 30 845 24.95 -11.6 11.1 81 -14.2 6.5
07:20 1016 30 845 24.95 -11.5 11.2 81 -14.2 6.5
07:25 1016 30 845 24.95 -11.7 11 81 -14.3 6.2
07:30 1016 30 845 24.95 -11.8 10.7 82 -14.4 6.2
07:35 1016 30 845 24.95 -11.8 10.7 82 -14.3 6.3
07:40 1016 30 845 24.95 -11.9 10.5 82 -14.5 6
07:45 1016 30 845 24.95 -12 10.4 81 -14.6 5.7
07:50 1016 30 845 24.95 -12 10.3 81 -14.7 5.6
07:55 1016 30 845 24.95 -11.9 10.5 80 -14.8 5.4
08:00 1016 30 846 24.98 -11.9 10.5 81 -14.6 5.7
08:05 1016 30 846 24.98 -11.9 10.6 81 -14.6 5.7
08:10 1016 30 846 24.98 -12.1 10.3 82 -14.5 5.9
08:15 1017 30.03 846 24.98 -12.1 10.2 82 -14.6 5.7
08:20 1017 30.03 846 24.98 -12.1 10.2 82 -14.5 5.9
08:25 1017 30.03 846 24.98 -12.1 10.2 82 -14.5 5.9
08:30 1017 30.03 846 24.98 -12 10.3 83 -14.4 6.1
08:35 1017 30.03 846 24.98 -12 10.4 82 -14.4 6.1
08:40 1017 30.03 846 24.98 -12 10.4 82 -14.6 5.8
08:45 1017 30.03 846 24.98 -12 10.3 81 -14.6 5.7
08:50 1017 30.03 847 25.01 -12 10.3 81 -14.7 5.5
08:55 1018 30.06 847 25.01 -12 10.4 80 -14.8 5.4
09:00 1018 30.06 847 25.01 -11.9 10.5 78 -14.9 5.1
09:05 1018 30.06 847 25.01 -11.8 10.8 78 -14.8 5.3
09:10 1018 30.06 847 25.01 -11.8 10.7 78 -15 5.1
09:15 1018 30.06 847 25.01 -11.8 10.8 78 -14.8 5.4
09:20 1018 30.06 847 25.01 -11.9 10.7 78 -14.9 5.2
09:25 1018 30.06 847 25.01 -11.6 11.2 77 -14.8 5.4
09:30 1018 30.06 847 25.01 -11.5 11.3 77 -14.8 5.3
09:35 1018 30.06 847 25.01 -11.7 11 78 -14.7 5.5
09:40 1018 30.06 847 25.01 -11.7 10.9 79 -14.6 5.7
09:45 1018 30.06 848 25.04 -11.6 11.1 77 -14.8 5.4
09:50 1018 30.06 848 25.04 -11.6 11.1 79 -14.6 5.8
09:55 1019 30.09 848 25.04 -11.4 11.4 79 -14.4 6
10:00 1019 30.09 848 25.04 -11.5 11.3 80 -14.2 6.4
10:05 1019 30.09 848 25.04 -11.3 11.7 79 -14.3 6.3
10:10 1019 30.09 848 25.04 -11.4 11.5 79 -14.3 6.2
10:15 1019 30.09 848 25.04 -11.6 11.2 80 -14.3 6.2
10:20 1019 30.09 848 25.04 -11.4 11.4 78 -14.5 5.9
10:25 1019 30.09 848 25.04 -11.4 11.6 78 -14.4 6.1
10:30 1019 30.09 848 25.04 -11 12.2 78 -14.1 6.6
10:35 1019 30.09 848 25.04 -11.2 11.9 79 -14.2 6.5
10:40 1019 30.09 848 25.04 -11.2 11.8 78 -14.3 6.3
10:45 1019 30.09 848 25.04 -10.9 12.3 77 -14.2 6.5
10:50 1019 30.09 848 25.04 -10.7 12.7 76 -14.2 6.4
10:55 1019 30.09 848 25.04 -10.7 12.7 76 -14.2 6.5
11:00 1019 30.09 848 25.04 -10.6 13 76 -14 6.8
11:05 1019 30.09 848 25.04 -10.6 12.9 75 -14.2 6.4
11:10 1019 30.09 848 25.04 -10.5 13.1 76 -14 6.8
11:15 1019 30.09 849 25.07 -10.2 13.6 75 -13.8 7.1
11:20 1019 30.09 849 25.07 -10.2 13.6 74 -13.9 6.9
11:25 1019 30.09 849 25.07 -10.2 13.6 75 -13.8 7.1
11:30 1019 30.09 849 25.07 -10.2 13.6 74 -13.9 6.9
11:35 1020 30.12 849 25.07 -10.1 13.8 73 -14.1 6.7
11:40 1020 30.12 849 25.07 -10.1 13.9 75 -13.8 7.2
11:45 1020 30.12 849 25.07 -10 14 73 -14 6.8
11:50 1020 30.12 849 25.07 -9.9 14.2 73 -13.9 7
11:55 1019 30.09 849 25.07 -10 14 75 -13.7 7.4
12:00 1019 30.09 849 25.07 -9.8 14.3 73 -13.9 7
12:05 1019 30.09 849 25.07 -9.7 14.6 72 -13.8 7.2
12:10 1020 30.12 849 25.07 -9.7 14.5 73 -13.7 7.3
12:15 1020 30.12 849 25.07 -9.6 14.7 72 -13.7 7.3
12:20 1020 30.12 849 25.07 -9.7 14.6 73 -13.6 7.6
12:25 1020 30.12 849 25.07 -9.5 14.9 73 -13.6 7.6
12:30 1020 30.12 849 25.07 -9.3 15.3 71 -13.6 7.5
12:35 1020 30.12 849 25.07 -9.2 15.4 71 -13.6 7.5
12:40 1020 30.12 849 25.07 -9.2 15.4 70 -13.7 7.3
12:45 1020 30.12 849 25.07 -9.2 15.5 70 -13.7 7.3
12:50 1020 30.12 849 25.07 -9.2 15.5 72 -13.4 7.9
12:55 1020 30.12 849 25.07 -9 15.8 71 -13.3 8
13:00 1020 30.12 849 25.07 -8.8 16.1 69 -13.5 7.7
13:05 1020 30.12 849 25.07 -8.9 15.9 69 -13.7 7.3
13:10 1020 30.12 849 25.07 -9 15.9 70 -13.5 7.6
13:15 1020 30.12 849 25.07 -8.9 16 70 -13.4 7.9
13:20 1020 30.12 849 25.07 -8.8 16.1 70 -13.4 7.9
13:25 1020 30.12 849 25.07 -9 15.8 69 -13.8 7.2
13:30 1020 30.12 849 25.07 -9.7 14.6 71 -14 6.8
13:35 1020 30.12 849 25.07 -9.6 14.6 72 -13.8 7.1
13:40 1020 30.12 849 25.07 -9.6 14.7 72 -13.9 7.1
13:45 1020 30.12 849 25.07 -9.8 14.3 74 -13.6 7.5
13:50 1020 30.12 849 25.07 -9.5 15 73 -13.5 7.7
13:55 1020 30.12 849 25.07 -9.1 15.6 71 -13.5 7.6
14:00 1020 30.12 849 25.07 -8.8 16.1 69 -13.5 7.7
14:05 1020 30.12 849 25.07 -9.1 15.5 69 -13.8 7.2
14:10 1020 30.12 849 25.07 -9.1 15.6 71 -13.4 7.9
14:15 1020 30.12 849 25.07 -9.1 15.6 71 -13.4 7.8
14:20 1020 30.12 849 25.07 -9.2 15.4 71 -13.5 7.6
14:25 1020 30.12 849 25.07 -9.2 15.5 72 -13.3 8.1
14:30 1020 30.12 849 25.07 -8.9 16.1 72 -13.1 8.4
14:35 1020 30.12 849 25.07 -8.6 16.6 67 -13.6 7.5
14:40 1020 30.12 849 25.07 -8.8 16.2 70 -13.3 8.1
14:45 1020 30.12 849 25.07 -8.8 16.2 69 -13.5 7.8
14:50 1020 30.12 849 25.07 -8.9 16 70 -13.4 7.8
14:55 1020 30.12 849 25.07 -8.7 16.3 68 -13.6 7.6
15:00 1020 30.12 849 25.07 -8.8 16.3 69 -13.4 7.9
15:05 1020 30.12 849 25.07 -8.8 16.1 69 -13.6 7.6
15:10 1020 30.12 849 25.07 -8.6 16.5 68 -13.6 7.6
15:15 1020 30.12 849 25.07 -8.5 16.8 67 -13.6 7.6
15:20 1020 30.12 849 25.07 -8.5 16.8 65 -13.8 7.1
15:25 1020 30.12 849 25.07 -8.8 16.1 69 -13.6 7.6
15:30 1020 30.12 849 25.07 -8.7 16.4 69 -13.5 7.8
15:35 1020 30.12 849 25.07 -8.7 16.3 70 -13.3 8.1
15:40 1020 30.12 849 25.07 -8.7 16.4 67 -13.7 7.3
15:45 1020 30.12 849 25.07 -8.9 16 68 -13.7 7.4
15:50 1020 30.12 849 25.07 -8.9 15.9 68 -13.8 7.2
15:55 1020 30.12 849 25.07 -8.9 16 70 -13.5 7.8
16:00 1020 30.12 849 25.07 -8.8 16.2 69 -13.5 7.7
16:05 1020 30.12 849 25.07 -8.7 16.3 67 -13.8 7.2
16:10 1020 30.12 849 25.07 -9 15.9 67 -14.1 6.7
16:15 1020 30.12 849 25.07 -9.4 15.1 70 -13.9 7
16:20 1020 30.12 849 25.07 -9.4 15.1 71 -13.8 7.2
16:25 1020 30.12 849 25.07 -9 15.7 68 -13.9 7
16:30 1020 30.12 850 25.1 -9.1 15.6 70 -13.6 7.5
16:35 1020 30.12 850 25.1 -9 15.7 71 -13.5 7.8
16:40 1021 30.15 850 25.1 -9.2 15.4 71 -13.6 7.5
16:45 1021 30.15 850 25.1 -9.3 15.2 72 -13.5 7.7
16:50 1021 30.15 850 25.1 -9.1 15.6 71 -13.4 7.9
16:55 1021 30.15 850 25.1 -9.2 15.5 73 -13.2 8.3
17:00 1021 30.15 850 25.1 -9.1 15.6 73 -13.1 8.4
17:05 1021 30.15 850 25.1 -9.1 15.6 73 -13.1 8.4
17:10 1021 30.15 851 25.13 -9.3 15.2 75 -13 8.6
17:15 1021 30.15 851 25.13 -9.3 15.3 75 -13 8.6
17:20 1021 30.15 851 25.13 -9.3 15.3 75 -13 8.6
17:25 1021 30.15 851 25.13 -9.3 15.3 76 -12.7 9.1
17:30 1021 30.15 851 25.13 -9.2 15.4 77 -12.6 9.3
17:35 1021 30.15 851 25.13 -9.6 14.8 77 -12.9 8.8
17:40 1021 30.15 851 25.13 -9.9 14.2 78 -13.1 8.5
17:45 1021 30.15 851 25.13 -9.9 14.2 79 -12.9 8.7
17:50 1021 30.15 851 25.13 -9.7 14.5 80 -12.5 9.5
17:55 1021 30.15 851 25.13 -9.7 14.5 80 -12.6 9.3
18:00 1021 30.15 851 25.13 -10.1 13.8 80 -12.9 8.8
18:05 1021 30.15 851 25.13 -10.1 13.8 81 -12.8 8.9
18:10 1022 30.18 851 25.13 -10.1 13.8 82 -12.6 9.4
18:15 1022 30.18 851 25.13 -10 14 83 -12.4 9.6
18:20 1022 30.18 851 25.13 -10 13.9 84 -12.3 9.8
18:25 1021 30.15 851 25.13 -10.2 13.7 85 -12.3 9.9
18:30 1022 30.18 851 25.13 -10.1 13.9 84 -12.2 10
18:35 1022 30.18 851 25.13 -10 14 83 -12.4 9.6
18:40 1022 30.18 851 25.13 -10.1 13.8 85 -12.2 10.1
18:45 1022 30.18 851 25.13 -10 13.9 84 -12.3 9.8
18:50 1022 30.18 851 25.13 -10 14 85 -12.1 10.2
18:55 1022 30.18 851 25.13 -10 14.1 84 -12.1 10.2
19:00 1022 30.18 851 25.13 -10 14 83 -12.4 9.6
19:05 1022 30.18 851 25.13 -10.2 13.7 85 -12.3 9.9
19:10 1022 30.18 851 25.13 -10.2 13.6 85 -12.3 9.9
19:15 1022 30.18 851 25.13 -10.3 13.5 84 -12.5 9.5
19:20 1022 30.18 851 25.13 -10.5 13.2 85 -12.6 9.4
19:25 1022 30.18 851 25.13 -10.5 13 85 -12.6 9.3
19:30 1022 30.18 851 25.13 -10.6 12.9 85 -12.6 9.3
19:35 1022 30.18 851 25.13 -10.7 12.7 86 -12.6 9.3
19:40 1022 30.18 851 25.13 -10.7 12.8 85 -12.6 9.2
19:45 1022 30.18 851 25.13 -10.6 12.9 86 -12.6 9.3
19:50 1022 30.18 851 25.13 -10.5 13.1 85 -12.5 9.4
19:55 1022 30.18 851 25.13 -10.6 12.9 85 -12.6 9.4
20:00 1022 30.18 851 25.13 -10.6 13 85 -12.6 9.3
20:05 1022 30.18 851 25.13 -10.6 12.9 86 -12.5 9.5
20:10 1022 30.18 851 25.13 -10.6 12.8 85 -12.7 9.1
20:15 1022 30.18 851 25.13 -10.7 12.8 86 -12.6 9.3
20:20 1022 30.18 851 25.13 -10.5 13.1 85 -12.5 9.5
20:25 1022 30.18 851 25.13 -10.6 12.9 86 -12.5 9.6
20:30 1022 30.18 851 25.13 -10.4 13.3 86 -12.4 9.7
20:35 1022 30.18 851 25.13 -10.4 13.3 85 -12.4 9.6
20:40 1022 30.18 851 25.13 -10.4 13.3 85 -12.5 9.6
20:45 1022 30.18 851 25.13 -10.6 13 86 -12.4 9.6
20:50 1022 30.18 851 25.13 -10.5 13 85 -12.7 9.2
20:55 1022 30.18 851 25.13 -10.6 12.9 85 -12.6 9.3
21:00 1022 30.18 851 25.13 -10.6 12.9 85 -12.7 9.2
21:05 1022 30.18 851 25.13 -10.6 12.9 86 -12.6 9.4
21:10 1022 30.18 851 25.13 -10.6 12.8 87 -12.5 9.6
21:15 1022 30.18 851 25.13 -10.8 12.6 83 -13.1 8.4
21:20 1022 30.18 851 25.13 -11.1 12.1 82 -13.6 7.5
21:25 1022 30.18 851 25.13 -11.2 11.8 81 -13.9 6.9
21:30 1022 30.18 851 25.13 -11.3 11.7 81 -14 6.9
21:35 1022 30.18 851 25.13 -11.3 11.6 80 -14.2 6.4
21:40 1022 30.18 851 25.13 -11.4 11.4 79 -14.3 6.2
21:45 1022 30.18 851 25.13 -11.5 11.3 79 -14.4 6.1
21:50 1022 30.18 851 25.13 -11.6 11.1 79 -14.5 5.9
21:55 1022 30.18 852 25.16 -11.6 11.1 78 -14.7 5.6
22:00 1022 30.18 852 25.16 -11.7 11 78 -14.7 5.5
22:05 1022 30.18 852 25.16 -11.7 11 78 -14.7 5.5
22:10 1022 30.18 852 25.16 -11.7 10.9 80 -14.6 5.7
22:15 1022 30.18 852 25.16 -11.8 10.7 79 -14.8 5.4
22:20 1022 30.18 852 25.16 -11.9 10.7 80 -14.6 5.6
22:25 1022 30.18 852 25.16 -11.9 10.6 80 -14.6 5.7
22:30 1022 30.18 852 25.16 -11.9 10.6 79 -14.8 5.4
22:35 1022 30.18 852 25.16 -11.9 10.5 79 -14.9 5.2
22:40 1023 30.21 852 25.16 -12 10.4 80 -14.7 5.5
22:45 1023 30.21 852 25.16 -12 10.4 81 -14.7 5.6
22:50 1023 30.21 852 25.16 -12 10.3 82 -14.5 5.9
22:55 1023 30.21 852 25.16 -12.1 10.3 82 -14.5 5.8
23:00 1023 30.21 852 25.16 -12.1 10.1 81 -14.7 5.5
23:05 1023 30.21 852 25.16 -12.2 10.1 79 -15.1 4.8
23:10 1023 30.21 852 25.16 -12.2 10.1 77 -15.5 4.2
23:15 1023 30.21 852 25.16 -12.2 10.1 76 -15.7 3.8
23:20 1023 30.21 852 25.16 -12.1 10.1 72 -16.1 2.9
23:25 1023 30.21 852 25.16 -12.2 10.1 73 -16.2 2.9
23:30 1023 30.21 852 25.16 -12.2 10.1 73 -16.2 2.9
23:35 1023 30.21 852 25.16 -12.2 10 70 -16.6 2.1
23:40 1023 30.21 852 25.16 -12.3 9.8 71 -16.6 2.1
23:45 1023 30.21 852 25.16 -12.4 9.7 70 -16.8 1.7
23:50 1023 30.21 852 25.16 -12.5 9.6 70 -16.9 1.6
23:55 1023 30.21 852 25.16 -12.6 9.4 72 -16.6 2.1
24:00 1023 30.21 852 25.16 -12.7 9.2 78 -15.8 3.6